createdAt,value
2018-04-08T08:12:45.678Z,5136
2018-04-08T08:12:58.268Z,5024
2018-04-08T08:13:10.933Z,5024
2018-04-08T08:13:23.543Z,5020
2018-04-08T08:13:36.190Z,5020
2018-04-08T08:13:48.783Z,5024
2018-04-08T08:14:01.397Z,5020
2018-04-08T08:14:13.992Z,5024
2018-04-08T08:14:26.654Z,5024
2018-04-08T08:14:39.289Z,5028
2018-04-08T08:14:51.879Z,5028
2018-04-08T08:15:04.469Z,5032
2018-04-08T08:15:17.111Z,5032
2018-04-08T08:15:29.713Z,5036
2018-04-08T08:15:42.339Z,5040
2018-04-08T08:15:54.918Z,5044
2018-04-08T08:16:07.537Z,5048
2018-04-08T08:16:20.154Z,5048
2018-04-08T08:16:32.755Z,5052
2018-04-08T08:16:45.338Z,5052
2018-04-08T08:16:57.928Z,5048
2018-04-08T08:17:10.524Z,5040
2018-04-08T08:17:23.123Z,5040
2018-04-08T08:17:35.719Z,5036
2018-04-08T08:17:48.313Z,5036
2018-04-08T08:18:00.931Z,5040
2018-04-08T08:18:13.531Z,5044
2018-04-08T08:18:26.185Z,5044
2018-04-08T08:18:38.832Z,5044
2018-04-08T08:18:51.451Z,5044
2018-04-08T08:19:04.072Z,5044
2018-04-08T08:19:16.663Z,5044
2018-04-08T08:19:29.261Z,5052
2018-04-08T08:19:41.853Z,5056
2018-04-08T08:19:54.454Z,5060
2018-04-08T08:20:07.042Z,5060
2018-04-08T08:20:19.632Z,5056
2018-04-08T08:20:32.227Z,5060
2018-04-08T08:20:44.870Z,5072
2018-04-08T08:20:57.502Z,5076
2018-04-08T08:21:10.168Z,5072
2018-04-08T08:21:22.758Z,5064
2018-04-08T08:21:35.353Z,5060
2018-04-08T08:21:47.953Z,5052
2018-04-08T08:22:00.568Z,5036
2018-04-08T08:22:13.222Z,5028
2018-04-08T08:22:25.822Z,5028
2018-04-08T08:22:38.439Z,5028
2018-04-08T08:22:51.027Z,5032
2018-04-08T08:23:03.696Z,5028
2018-04-08T08:23:16.221Z,5024
2018-04-08T08:23:28.836Z,5016
2018-04-08T08:23:41.436Z,5012
2018-04-08T08:23:54.053Z,5012
2018-04-08T08:24:06.667Z,5012
2018-04-08T08:24:19.284Z,5012
2018-04-08T08:24:31.883Z,5024
2018-04-08T08:24:44.476Z,5052
2018-04-08T08:24:57.066Z,5064
2018-04-08T08:25:09.666Z,5080
2018-04-08T08:25:22.258Z,5104
2018-04-08T08:25:34.854Z,5120
2018-04-08T08:25:47.449Z,5132
2018-04-08T08:26:00.030Z,5116
2018-04-08T08:26:12.620Z,5092
2018-04-08T08:26:25.213Z,5072
2018-04-08T08:26:37.830Z,5052
2018-04-08T08:26:50.447Z,5036
2018-04-08T08:27:03.049Z,5016
2018-04-08T08:27:15.675Z,5008
2018-04-08T08:27:28.262Z,4996
2018-04-08T08:27:40.855Z,4996
2018-04-08T08:27:53.471Z,4996
2018-04-08T08:28:06.207Z,5012
2018-04-08T08:28:18.859Z,5024
2018-04-08T08:28:31.448Z,5040
2018-04-08T08:28:44.033Z,5052
2018-04-08T08:28:56.670Z,5068
2018-04-08T08:29:09.260Z,5076
2018-04-08T08:29:21.850Z,5100
2018-04-08T08:29:34.448Z,5196
2018-04-08T08:29:47.051Z,5300
2018-04-08T08:29:59.638Z,5352
2018-04-08T08:30:12.257Z,5312
2018-04-08T08:30:24.853Z,5292
2018-04-08T08:30:37.464Z,5268
2018-04-08T08:30:50.099Z,5224
2018-04-08T08:31:02.698Z,5192
2018-04-08T08:31:15.314Z,5156
2018-04-08T08:31:27.903Z,5124
2018-04-08T08:31:40.500Z,5096
2018-04-08T08:33:59.824Z,4988
2018-04-08T08:34:12.456Z,4992
2018-04-08T08:34:25.048Z,5000
2018-04-08T08:34:37.654Z,5004
2018-04-08T08:34:50.241Z,5008
2018-04-08T08:35:02.858Z,5008
2018-04-08T08:35:15.471Z,5028
2018-04-08T08:35:28.065Z,5040
2018-04-08T08:35:40.654Z,5040
2018-04-08T08:35:53.251Z,5060
2018-04-08T08:36:05.845Z,5124
2018-04-08T08:36:18.434Z,5156
2018-04-08T08:36:31.028Z,5192
2018-04-08T08:36:43.672Z,5192
2018-04-08T08:36:56.267Z,5180
2018-04-08T08:37:08.954Z,5164
2018-04-08T08:37:21.569Z,5152
2018-04-08T08:37:34.218Z,5144
2018-04-08T08:37:46.814Z,5132
2018-04-08T08:37:59.438Z,5120
2018-04-08T08:38:12.066Z,5104
2018-04-08T08:38:24.661Z,5096
2018-04-08T08:38:37.298Z,5080
2018-04-08T08:38:49.892Z,5072
2018-04-08T08:39:02.511Z,5064
2018-04-08T08:39:15.097Z,5060
2018-04-08T08:39:27.714Z,5064
2018-04-08T08:39:40.536Z,5056
2018-04-08T08:39:53.210Z,5048
2018-04-08T08:40:05.841Z,5040
2018-04-08T08:40:18.471Z,5036
2018-04-08T08:40:31.109Z,5028
2018-04-08T08:40:43.720Z,5024
2018-04-08T08:40:56.319Z,5024
2018-04-08T08:41:08.911Z,5016
2018-04-08T08:41:21.501Z,5020
2018-04-08T08:41:34.095Z,5024
2018-04-08T08:41:46.693Z,5028
2018-04-08T08:41:59.264Z,5028
2018-04-08T08:42:11.931Z,5028
2018-04-08T08:42:24.528Z,5020
2018-04-08T08:42:37.144Z,5020
2018-04-08T08:42:49.760Z,5020
2018-04-08T08:43:02.356Z,5016
2018-04-08T08:43:14.948Z,5012
2018-04-08T08:43:27.540Z,5012
2018-04-08T08:43:40.265Z,5008
2018-04-08T08:43:52.837Z,5008
2018-04-08T08:44:05.472Z,5000
2018-04-08T08:44:18.071Z,4996
2018-04-08T08:44:30.661Z,4992
2018-04-08T08:44:43.257Z,4992
2018-04-08T08:44:55.853Z,4996
2018-04-08T08:45:08.443Z,4996
2018-04-08T08:45:21.039Z,5000
2018-04-08T08:45:33.658Z,5000
2018-04-08T08:45:46.248Z,5000
2018-04-08T08:45:58.868Z,4992
2018-04-08T08:46:11.479Z,5000
2018-04-08T08:46:24.075Z,5004
2018-04-08T08:46:36.690Z,5008
2018-04-08T08:46:49.286Z,5012
2018-04-08T08:47:01.905Z,5012
2018-04-08T08:47:14.566Z,5016
2018-04-08T08:47:27.201Z,5020
2018-04-08T08:47:39.779Z,5028
2018-04-08T08:47:52.449Z,5044
2018-04-08T08:48:05.062Z,5044
2018-04-08T08:48:17.659Z,5044
2018-04-08T08:48:30.253Z,5048
2018-04-08T08:48:42.840Z,5056
2018-04-08T08:48:55.434Z,5060
2018-04-08T08:49:08.120Z,5060
2018-04-08T08:49:20.712Z,5060
2018-04-08T08:49:33.299Z,5068
2018-04-08T08:49:45.902Z,5072
2018-04-08T08:49:58.506Z,5072
2018-04-08T08:50:11.102Z,5072
2018-04-08T08:50:23.700Z,5072
2018-04-08T08:50:36.312Z,5068
2018-04-08T08:50:48.908Z,5064
2018-04-08T08:51:01.506Z,5064
2018-04-08T08:51:14.122Z,5060
2018-04-08T08:51:26.748Z,5060
2018-04-08T08:51:39.344Z,5068
2018-04-08T08:51:51.937Z,5072
2018-04-08T08:52:04.531Z,5080
2018-04-08T08:52:17.123Z,5112
2018-04-08T08:52:29.716Z,5156
2018-04-08T08:52:42.314Z,5184
2018-04-08T08:52:54.934Z,5192
2018-04-08T08:53:07.521Z,5216
2018-04-08T08:53:20.145Z,5276
2018-04-08T08:53:32.804Z,5392
2018-04-08T08:53:45.392Z,5460
2018-04-08T08:53:57.991Z,5512
2018-04-08T08:54:10.581Z,5548
2018-04-08T08:54:23.253Z,5572
2018-04-08T08:54:35.884Z,5596
2018-04-08T08:54:48.536Z,5676
2018-04-08T08:55:01.195Z,5768
2018-04-08T08:55:13.745Z,5876
2018-04-08T08:55:26.341Z,5916
2018-04-08T08:55:38.958Z,5932
2018-04-08T08:55:51.602Z,5964
2018-04-08T08:56:04.198Z,6000
2018-04-08T08:56:16.810Z,6080
2018-04-08T08:56:29.403Z,6152
2018-04-08T08:56:41.998Z,6220
2018-04-08T08:56:54.698Z,6196
2018-04-08T08:57:07.293Z,6152
2018-04-08T08:57:19.909Z,6100
2018-04-08T08:57:32.574Z,6080
2018-04-08T08:57:45.210Z,6132
2018-04-08T08:57:57.865Z,6156
2018-04-08T08:58:10.616Z,6168
2018-04-08T08:58:23.172Z,6156
2018-04-08T08:58:35.764Z,6160
2018-04-08T08:58:48.354Z,6484
2018-04-08T08:59:00.948Z,7024
2018-04-08T08:59:13.549Z,7300
2018-04-08T08:59:26.167Z,7384
2018-04-08T08:59:38.757Z,7364
2018-04-08T08:59:51.377Z,7276
2018-04-08T09:00:04.021Z,7124
2018-04-08T09:00:16.637Z,6936
2018-04-08T09:00:29.255Z,6724
2018-04-08T09:00:41.881Z,6544
2018-04-08T09:00:54.461Z,6480
2018-04-08T09:01:07.056Z,6432
2018-04-08T09:01:19.659Z,6352
2018-04-08T09:01:32.273Z,6244
2018-04-08T09:01:44.864Z,6148
2018-04-08T09:01:57.461Z,6040
2018-04-08T09:02:10.050Z,5872
2018-04-08T09:02:22.639Z,5828
2018-04-08T09:02:35.228Z,5900
2018-04-08T09:02:47.801Z,6036
2018-04-08T09:03:00.403Z,6176
2018-04-08T09:03:13.066Z,6232
2018-04-08T09:03:25.681Z,6200
2018-04-08T09:03:38.279Z,6136
2018-04-08T09:03:50.869Z,6132
2018-04-08T09:04:03.467Z,6132
2018-04-08T09:04:16.061Z,6168
2018-04-08T09:04:28.653Z,6192
2018-04-08T09:04:41.251Z,6132
2018-04-08T09:04:53.844Z,6184
2018-04-08T09:05:06.446Z,6120
2018-04-08T09:05:19.038Z,5972
2018-04-08T09:05:31.635Z,5868
2018-04-08T09:05:44.254Z,5812
2018-04-08T09:05:56.871Z,5764
2018-04-08T09:06:09.458Z,5780
2018-04-08T09:06:22.104Z,6364
2018-04-08T09:06:34.723Z,7056
2018-04-08T09:06:47.332Z,7196
2018-04-08T09:06:59.928Z,7176
2018-04-08T09:07:12.544Z,7148
2018-04-08T09:07:25.156Z,6992
2018-04-08T09:07:37.751Z,6896
2018-04-08T09:07:50.343Z,6900
2018-04-08T09:08:02.934Z,6828
2018-04-08T09:08:15.525Z,6756
2018-04-08T09:08:28.123Z,6700
2018-04-08T09:08:40.746Z,6700
2018-04-08T09:08:53.359Z,6684
2018-04-08T09:09:05.953Z,6852
2018-04-08T09:09:18.546Z,7292
2018-04-08T09:09:31.147Z,7856
2018-04-08T09:09:43.730Z,8420
2018-04-08T09:09:56.317Z,8508
2018-04-08T09:10:08.913Z,8144
2018-04-08T09:10:21.505Z,7804
2018-04-08T09:10:34.104Z,7596
2018-04-08T09:10:46.699Z,7408
2018-04-08T09:10:59.318Z,7220
2018-04-08T09:11:11.936Z,6984
2018-04-08T09:11:24.556Z,6760
2018-04-08T09:11:37.149Z,6564
2018-04-08T09:11:49.763Z,6408
2018-04-08T09:12:02.445Z,6300
2018-04-08T09:12:15.059Z,6292
2018-04-08T09:12:27.652Z,6308
2018-04-08T09:12:40.333Z,6316
2018-04-08T09:12:53.036Z,6368
2018-04-08T09:13:05.744Z,6448
2018-04-08T09:13:18.483Z,6580
2018-04-08T09:13:31.046Z,6660
2018-04-08T09:13:43.664Z,6664
2018-04-08T09:13:56.277Z,6668
2018-04-08T09:14:08.879Z,6656
2018-04-08T09:14:21.491Z,6608
2018-04-08T09:14:34.069Z,6520
2018-04-08T09:14:46.667Z,6444
2018-04-08T09:14:59.276Z,6232
2018-04-08T09:15:11.874Z,6156
2018-04-08T09:15:24.488Z,6104
2018-04-08T09:15:37.078Z,6056
2018-04-08T09:15:49.675Z,6004
2018-04-08T09:16:02.265Z,6004
2018-04-08T09:16:14.856Z,6080
2018-04-08T09:16:27.445Z,6304
2018-04-08T09:16:40.044Z,6668
2018-04-08T09:16:52.641Z,7228
2018-04-08T09:17:05.253Z,7976
2018-04-08T09:17:17.867Z,8556
2018-04-08T09:17:30.489Z,8988
2018-04-08T09:17:43.053Z,8984
2018-04-08T09:17:55.650Z,8984
2018-04-08T09:18:08.241Z,9116
2018-04-08T09:18:20.834Z,9100
2018-04-08T09:18:33.432Z,9248
2018-04-08T09:18:46.056Z,9352
2018-04-08T09:18:58.666Z,9144
2018-04-08T09:19:11.258Z,8896
2018-04-08T09:19:23.861Z,8536
2018-04-08T09:19:36.473Z,8120
2018-04-08T09:19:49.084Z,7800
2018-04-08T09:20:01.683Z,7712
2018-04-08T09:20:14.270Z,7744
2018-04-08T09:20:26.869Z,8076
2018-04-08T09:20:39.457Z,8772
2018-04-08T09:20:52.098Z,9388
2018-04-08T09:21:04.692Z,9808
2018-04-08T09:21:17.288Z,9880
2018-04-08T09:21:29.886Z,9904
2018-04-08T09:21:42.477Z,10320
2018-04-08T09:21:55.096Z,10796
2018-04-08T09:22:07.692Z,11600
2018-04-08T09:22:20.285Z,12536
2018-04-08T09:22:32.881Z,12736
2018-04-08T09:22:45.483Z,12208
2018-04-08T09:22:58.074Z,11448
2018-04-08T09:23:10.674Z,11080
2018-04-08T09:23:23.288Z,10768
2018-04-08T09:23:35.884Z,10640
2018-04-08T09:23:48.482Z,10676
2018-04-08T09:24:01.100Z,10612
2018-04-08T09:24:13.731Z,10376
2018-04-08T09:24:26.290Z,9956
2018-04-08T09:24:38.880Z,9568
2018-04-08T09:24:51.475Z,9428
2018-04-08T09:25:04.067Z,9564
2018-04-08T09:25:16.661Z,9904
2018-04-08T09:25:29.256Z,10292
2018-04-08T09:25:41.850Z,10628
2018-04-08T09:25:54.449Z,10968
2018-04-08T09:26:07.069Z,11172
2018-04-08T09:26:19.691Z,11372
2018-04-08T09:26:32.305Z,11488
2018-04-08T09:26:44.963Z,11520
2018-04-08T09:26:57.500Z,11456
2018-04-08T09:27:10.096Z,11240
2018-04-08T09:27:22.719Z,10808
2018-04-08T09:27:35.331Z,10140
2018-04-08T09:27:47.928Z,9536
2018-04-08T09:28:00.520Z,9276
2018-04-08T09:28:13.144Z,9352
2018-04-08T09:28:25.753Z,9596
2018-04-08T09:28:38.349Z,10024
2018-04-08T09:28:50.950Z,10576
2018-04-08T09:29:03.608Z,10900
2018-04-08T09:29:16.163Z,11056
2018-04-08T09:29:28.779Z,11452
2018-04-08T09:29:41.421Z,12000
2018-04-08T09:29:53.966Z,11860
2018-04-08T09:30:06.563Z,11524
2018-04-08T09:30:19.179Z,11144
2018-04-08T09:30:31.787Z,10792
2018-04-08T09:30:44.375Z,10428
2018-04-08T09:30:56.971Z,10108
2018-04-08T09:31:09.592Z,9952
2018-04-08T09:31:22.260Z,10036
2018-04-08T09:31:34.856Z,10612
2018-04-08T09:31:47.451Z,11792
2018-04-08T09:32:00.052Z,12564
2018-04-08T09:32:12.640Z,12392
2018-04-08T09:32:25.242Z,11836
2018-04-08T09:32:37.861Z,11512
2018-04-08T09:32:50.473Z,11264
2018-04-08T09:33:03.072Z,11080
2018-04-08T09:33:15.692Z,11108
2018-04-08T09:33:28.288Z,11276
2018-04-08T09:33:40.879Z,11460
2018-04-08T09:33:53.476Z,11240
2018-04-08T09:34:06.077Z,10988
2018-04-08T09:34:18.676Z,10752
2018-04-08T09:34:31.266Z,10616
2018-04-08T09:34:43.910Z,10596
2018-04-08T09:34:56.528Z,10532
2018-04-08T09:35:09.124Z,10548
2018-04-08T09:35:21.721Z,10636
2018-04-08T09:35:34.313Z,10712
2018-04-08T09:35:46.910Z,10708
2018-04-08T09:35:59.507Z,10848
2018-04-08T09:36:12.128Z,11112
2018-04-08T09:36:24.746Z,11424
2018-04-08T09:36:37.308Z,11440
2018-04-08T09:36:49.901Z,11456
2018-04-08T09:37:02.492Z,11632
2018-04-08T09:37:15.089Z,11800
2018-04-08T09:37:27.704Z,12236
2018-04-08T09:37:40.325Z,11988
2018-04-08T09:37:52.920Z,11092
2018-04-08T09:38:05.511Z,10216
2018-04-08T09:38:18.107Z,9488
2018-04-08T09:38:30.700Z,8912
2018-04-08T09:38:43.299Z,8424
2018-04-08T09:38:55.891Z,8108
2018-04-08T09:39:08.488Z,8012
2018-04-08T09:39:21.101Z,8112
2018-04-08T09:39:33.699Z,8336
2018-04-08T09:39:46.316Z,8728
2018-04-08T09:39:58.910Z,9164
2018-04-08T09:40:11.509Z,9592
2018-04-08T09:40:24.099Z,10108
2018-04-08T09:40:36.699Z,10680
2018-04-08T09:40:49.290Z,11300
2018-04-08T09:41:01.881Z,11728
2018-04-08T09:41:14.480Z,11924
2018-04-08T09:41:27.070Z,11864
2018-04-08T09:41:39.668Z,11752
2018-04-08T09:41:52.264Z,11716
2018-04-08T09:42:04.878Z,11768
2018-04-08T09:42:17.477Z,11752
2018-04-08T09:42:30.096Z,11588
2018-04-08T09:42:42.713Z,11212
2018-04-08T09:42:55.313Z,10680
2018-04-08T09:43:07.933Z,10140
2018-04-08T09:43:20.547Z,9960
2018-04-08T09:43:33.144Z,10084
2018-04-08T09:43:45.737Z,10284
2018-04-08T09:43:58.336Z,10532
2018-04-08T09:44:10.954Z,10748
2018-04-08T09:44:23.547Z,10916
2018-04-08T09:44:36.153Z,10936
2018-04-08T09:44:48.763Z,10588
2018-04-08T09:45:01.357Z,10060
2018-04-08T09:45:13.952Z,9664
2018-04-08T09:45:26.545Z,9544
2018-04-08T09:45:39.164Z,9784
2018-04-08T09:45:51.740Z,10304
2018-04-08T09:46:04.354Z,11132
2018-04-08T09:46:16.955Z,11880
2018-04-08T09:46:29.573Z,12004
2018-04-08T09:46:42.183Z,12148
2018-04-08T09:46:54.782Z,12424
2018-04-08T09:47:07.397Z,12424
2018-04-08T09:47:19.992Z,12112
2018-04-08T09:47:32.609Z,11680
2018-04-08T09:47:45.229Z,11356
2018-04-08T09:47:57.825Z,11300
2018-04-08T09:48:10.441Z,11544
2018-04-08T09:48:23.037Z,11956
2018-04-08T09:48:35.630Z,12684
2018-04-08T09:48:48.221Z,12632
2018-04-08T09:49:00.817Z,12104
2018-04-08T09:49:13.426Z,11588
2018-04-08T09:49:26.007Z,11156
2018-04-08T09:49:38.598Z,10980
2018-04-08T09:49:51.196Z,11032
2018-04-08T09:50:03.790Z,10792
2018-04-08T09:50:16.404Z,10228
2018-04-08T09:50:29.000Z,9564
2018-04-08T09:50:41.594Z,8952
2018-04-08T09:50:54.210Z,8536
2018-04-08T09:51:06.822Z,8380
2018-04-08T09:51:19.423Z,8552
2018-04-08T09:51:32.015Z,9100
2018-04-08T09:51:44.609Z,9804
2018-04-08T09:51:57.204Z,10460
2018-04-08T09:52:09.779Z,10804
2018-04-08T09:52:22.376Z,10768
2018-04-08T09:52:34.972Z,10600
2018-04-08T09:52:47.566Z,10384
2018-04-08T09:53:00.165Z,10076
2018-04-08T09:53:12.780Z,9668
2018-04-08T09:53:25.379Z,9344
2018-04-08T09:53:37.969Z,9028
2018-04-08T09:53:50.564Z,8712
2018-04-08T09:54:03.180Z,8464
2018-04-08T09:54:15.773Z,8160
2018-04-08T09:54:28.368Z,7736
2018-04-08T09:54:40.960Z,7300
2018-04-08T09:54:53.551Z,6888
2018-04-08T09:55:06.232Z,6472
2018-04-08T09:55:18.762Z,6104
2018-04-08T09:55:31.349Z,5856
2018-04-08T09:55:43.998Z,5752
2018-04-08T09:55:56.614Z,5780
2018-04-08T09:56:09.259Z,5896
2018-04-08T09:56:21.850Z,6060
2018-04-08T09:56:34.450Z,6280
2018-04-08T09:56:47.091Z,6556
2018-04-08T09:56:59.707Z,6780
2018-04-08T09:57:12.321Z,6740
2018-04-08T09:57:24.915Z,6656
2018-04-08T09:57:37.533Z,6476
2018-04-08T09:57:50.151Z,6332
2018-04-08T09:58:02.751Z,6416
2018-04-08T09:58:15.373Z,6600
2018-04-08T09:58:27.956Z,6828
2018-04-08T09:58:40.556Z,7072
2018-04-08T09:58:53.148Z,7212
2018-04-08T09:59:05.722Z,7320
2018-04-08T09:59:18.371Z,7300
2018-04-08T09:59:30.911Z,7092
2018-04-08T09:59:43.505Z,6760
2018-04-08T09:59:56.124Z,6464
2018-04-08T10:00:08.738Z,6224
2018-04-08T10:00:21.333Z,5984
2018-04-08T10:00:33.949Z,5768
2018-04-08T10:00:46.551Z,5660
2018-04-08T10:00:59.165Z,5604
2018-04-08T10:01:11.759Z,5572
2018-04-08T10:01:24.353Z,5624
2018-04-08T10:01:36.955Z,5756
2018-04-08T10:01:49.545Z,5844
2018-04-08T10:02:02.210Z,5836
2018-04-08T10:02:14.799Z,5736
2018-04-08T10:02:27.393Z,5504
2018-04-08T10:02:39.994Z,5220
2018-04-08T10:02:52.584Z,4948
2018-04-08T10:03:05.197Z,4720
2018-04-08T10:03:17.798Z,4544
2018-04-08T10:03:30.419Z,4440
2018-04-08T10:03:43.008Z,4472
2018-04-08T10:03:55.600Z,4620
2018-04-08T10:04:08.188Z,4848
2018-04-08T10:04:20.786Z,5092
2018-04-08T10:04:33.400Z,5304
2018-04-08T10:04:45.998Z,5452
2018-04-08T10:04:58.586Z,5560
2018-04-08T10:05:11.176Z,5612
2018-04-08T10:05:23.839Z,5564
2018-04-08T10:05:36.404Z,5428
2018-04-08T10:05:49.046Z,5228
2018-04-08T10:06:01.657Z,4988
2018-04-08T10:06:14.256Z,4732
2018-04-08T10:06:26.855Z,4556
2018-04-08T10:06:39.472Z,4516
2018-04-08T10:06:52.061Z,4628
2018-04-08T10:07:04.652Z,4880
2018-04-08T10:07:17.248Z,5232
2018-04-08T10:07:29.845Z,5584
2018-04-08T10:07:42.440Z,5792
2018-04-08T10:07:55.053Z,5828
2018-04-08T10:08:07.646Z,5684
2018-04-08T10:08:20.228Z,5380
2018-04-08T10:08:32.840Z,5016
2018-04-08T10:08:45.458Z,4712
2018-04-08T10:08:58.104Z,4476
2018-04-08T10:09:10.800Z,4312
2018-04-08T10:09:23.485Z,4204
2018-04-08T10:09:36.127Z,4112
2018-04-08T10:09:48.756Z,4004
2018-04-08T10:10:01.376Z,3920
2018-04-08T10:10:13.994Z,3912
2018-04-08T10:10:26.582Z,3976
2018-04-08T10:10:39.223Z,4112
2018-04-08T10:10:51.880Z,4272
2018-04-08T10:11:04.513Z,4452
2018-04-08T10:11:17.109Z,4580
2018-04-08T10:11:29.706Z,4652
2018-04-08T10:11:42.356Z,4668
2018-04-08T10:11:54.971Z,4652
2018-04-08T10:12:07.571Z,4628
2018-04-08T10:12:20.166Z,4596
2018-04-08T10:12:32.788Z,4528
2018-04-08T10:12:45.381Z,4416
2018-04-08T10:12:58.011Z,4232
2018-04-08T10:13:10.660Z,4016
2018-04-08T10:13:23.349Z,3812
2018-04-08T10:13:36.043Z,3632
2018-04-08T10:13:48.678Z,3484
2018-04-08T10:14:01.295Z,3360
2018-04-08T10:14:13.943Z,3276
2018-04-08T10:14:26.579Z,3244
2018-04-08T10:14:39.169Z,3240
2018-04-08T10:14:51.762Z,3276
2018-04-08T10:15:04.356Z,3348
2018-04-08T10:15:16.968Z,3484
2018-04-08T10:15:29.562Z,3692
2018-04-08T10:15:42.159Z,3944
2018-04-08T10:15:54.775Z,4220
2018-04-08T10:16:07.390Z,4456
2018-04-08T10:16:19.990Z,4672
2018-04-08T10:16:32.608Z,4892
2018-04-08T10:16:45.193Z,5036
2018-04-08T10:16:57.788Z,5148
2018-04-08T10:17:10.392Z,5228
2018-04-08T10:17:22.998Z,5296
2018-04-08T10:17:35.649Z,5304
2018-04-08T10:17:48.189Z,5248
2018-04-08T10:18:00.778Z,5164
2018-04-08T10:18:13.375Z,5144
2018-04-08T10:18:25.989Z,5240
2018-04-08T10:18:38.593Z,5424
2018-04-08T10:18:51.257Z,5580
2018-04-08T10:19:03.857Z,5636
2018-04-08T10:19:16.432Z,5612
2018-04-08T10:19:29.028Z,5496
2018-04-08T10:19:41.650Z,5312
2018-04-08T10:19:54.269Z,5092
2018-04-08T10:20:06.884Z,4944
2018-04-08T10:20:19.478Z,4880
2018-04-08T10:20:32.095Z,4824
2018-04-08T10:20:44.708Z,4756
2018-04-08T10:20:57.307Z,4636
2018-04-08T10:21:09.898Z,4520
2018-04-08T10:21:22.515Z,4440
2018-04-08T10:21:35.115Z,4392
2018-04-08T10:21:47.933Z,4364
2018-04-08T10:22:00.542Z,4360
2018-04-08T10:22:13.164Z,4372
2018-04-08T10:22:25.753Z,4392
2018-04-08T10:22:38.349Z,4376
2018-04-08T10:22:50.972Z,4328
2018-04-08T10:23:03.591Z,4256
2018-04-08T10:23:16.185Z,4160
2018-04-08T10:23:28.788Z,4080
2018-04-08T10:23:41.380Z,4032
2018-04-08T10:23:53.981Z,3992
2018-04-08T10:24:06.607Z,3960
2018-04-08T10:24:19.411Z,3960
2018-04-08T10:24:32.255Z,4000
2018-04-08T10:24:44.840Z,4084
2018-04-08T10:24:57.467Z,4188
2018-04-08T10:25:10.088Z,4252
2018-04-08T10:25:22.731Z,4288
2018-04-08T10:25:35.327Z,4312
2018-04-08T10:25:48.004Z,4340
2018-04-08T10:26:00.618Z,4420
2018-04-08T10:26:13.198Z,4556
2018-04-08T10:26:25.805Z,4760
2018-04-08T10:26:38.409Z,5004
2018-04-08T10:26:50.992Z,5364
2018-04-08T10:27:03.660Z,5808
2018-04-08T10:27:16.248Z,6216
2018-04-08T10:27:28.857Z,6568
2018-04-08T10:27:41.456Z,6756
2018-04-08T10:27:54.134Z,6800
2018-04-08T10:28:06.728Z,6748
2018-04-08T10:28:19.379Z,6696
2018-04-08T10:28:32.164Z,6752
2018-04-08T10:28:44.785Z,6924
2018-04-08T10:28:57.414Z,7036
2018-04-08T10:29:10.055Z,7100
2018-04-08T10:29:22.648Z,7020
2018-04-08T10:29:35.230Z,6928
2018-04-08T10:29:47.852Z,6900
2018-04-08T10:30:00.469Z,6924
2018-04-08T10:30:13.088Z,7040
2018-04-08T10:30:25.679Z,7272
2018-04-08T10:30:38.295Z,7556
2018-04-08T10:30:50.896Z,7732
2018-04-08T10:31:03.511Z,7648
2018-04-08T10:31:16.148Z,7436
2018-04-08T10:31:28.724Z,7216
2018-04-08T10:31:41.319Z,7084
2018-04-08T10:31:53.939Z,7164
2018-04-08T10:32:06.535Z,7448
2018-04-08T10:32:19.167Z,7832
2018-04-08T10:32:31.762Z,8356
2018-04-08T10:32:44.384Z,9012
2018-04-08T10:32:56.972Z,9676
2018-04-08T10:33:09.794Z,9904
2018-04-08T10:33:22.402Z,9772
2018-04-08T10:33:35.005Z,9372
2018-04-08T10:33:47.597Z,8836
2018-04-08T10:34:00.188Z,8348
2018-04-08T10:34:12.833Z,8016
2018-04-08T10:34:25.425Z,7864
2018-04-08T10:34:38.057Z,7824
2018-04-08T10:34:50.655Z,7804
2018-04-08T10:35:03.257Z,7760
2018-04-08T10:35:16.063Z,7680
2018-04-08T10:35:28.666Z,7816
2018-04-08T10:35:41.257Z,7920
2018-04-08T10:35:53.858Z,7872
2018-04-08T10:36:06.453Z,7820
2018-04-08T10:36:19.104Z,7564
2018-04-08T10:36:31.675Z,7408
2018-04-08T10:36:44.301Z,7436
2018-04-08T10:36:56.896Z,7416
2018-04-08T10:37:09.521Z,7340
2018-04-08T10:37:22.135Z,7120
2018-04-08T10:37:34.758Z,6868
2018-04-08T10:37:47.338Z,6716
2018-04-08T10:37:59.978Z,6672
2018-04-08T10:38:12.589Z,6592
2018-04-08T10:38:25.189Z,6524
2018-04-08T10:38:37.813Z,6472
2018-04-08T10:38:50.629Z,6424
2018-04-08T10:39:03.247Z,6336
2018-04-08T10:39:15.868Z,6232
2018-04-08T10:39:28.456Z,6324
2018-04-08T10:39:41.049Z,6492
2018-04-08T10:39:53.647Z,6640
2018-04-08T10:40:06.260Z,6776
2018-04-08T10:40:18.852Z,6908
2018-04-08T10:40:31.472Z,7112
2018-04-08T10:40:44.066Z,7348
2018-04-08T10:40:56.661Z,7320
2018-04-08T10:41:09.260Z,7128
2018-04-08T10:41:21.879Z,6948
2018-04-08T10:41:34.496Z,6820
2018-04-08T10:41:47.118Z,6752
2018-04-08T10:41:59.708Z,6880
2018-04-08T10:42:12.302Z,7216
2018-04-08T10:42:24.920Z,7448
2018-04-08T10:42:37.514Z,7632
2018-04-08T10:42:50.154Z,7712
2018-04-08T10:43:02.839Z,7584
2018-04-08T10:43:15.435Z,7444
2018-04-08T10:43:28.077Z,7268
2018-04-08T10:43:40.668Z,7036
2018-04-08T10:43:53.261Z,6852
2018-04-08T10:44:05.854Z,6764
2018-04-08T10:44:18.442Z,6740
2018-04-08T10:44:31.056Z,6744
2018-04-08T10:44:43.725Z,6700
2018-04-08T10:44:56.272Z,6620
2018-04-08T10:45:08.866Z,6612
2018-04-08T10:45:21.495Z,6660
2018-04-08T10:45:34.085Z,6680
2018-04-08T10:45:46.669Z,6808
2018-04-08T10:45:59.259Z,6952
2018-04-08T10:46:11.861Z,7060
2018-04-08T10:46:24.674Z,7140
2018-04-08T10:46:37.266Z,7052
2018-04-08T10:46:49.862Z,6928
2018-04-08T10:47:02.484Z,6864
2018-04-08T10:47:15.075Z,6820
2018-04-08T10:47:27.693Z,6752
2018-04-08T10:47:40.285Z,6632
2018-04-08T10:47:52.878Z,6476
2018-04-08T10:48:05.498Z,6360
2018-04-08T10:48:18.095Z,6292
2018-04-08T10:48:30.687Z,6400
2018-04-08T10:48:43.273Z,6540
2018-04-08T10:48:55.872Z,6572
2018-04-08T10:49:08.468Z,6588
2018-04-08T10:49:21.065Z,6628
2018-04-08T10:49:33.874Z,6776
2018-04-08T10:49:46.477Z,7072
2018-04-08T10:49:59.300Z,7500
2018-04-08T10:50:11.885Z,7784
2018-04-08T10:50:24.482Z,8040
2018-04-08T10:50:37.119Z,8472
2018-04-08T10:50:49.722Z,8812
2018-04-08T10:51:02.335Z,9020
2018-04-08T10:51:14.940Z,8992
2018-04-08T10:51:27.769Z,8820
2018-04-08T10:51:40.369Z,8608
2018-04-08T10:51:52.935Z,8672
2018-04-08T10:52:05.555Z,9004
2018-04-08T10:52:18.175Z,9420
2018-04-08T10:52:30.818Z,9680
2018-04-08T10:52:43.428Z,9728
2018-04-08T10:52:56.025Z,9560
2018-04-08T10:53:08.641Z,9176
2018-04-08T10:53:21.291Z,8732
2018-04-08T10:53:33.886Z,8320
2018-04-08T10:53:46.705Z,7980
2018-04-08T10:53:59.332Z,7780
2018-04-08T10:54:11.932Z,7680
2018-04-08T10:54:24.552Z,7560
2018-04-08T10:54:37.160Z,7380
2018-04-08T10:54:49.757Z,7196
2018-04-08T10:55:02.354Z,6948
2018-04-08T10:55:15.186Z,6660
2018-04-08T10:55:27.800Z,6516
2018-04-08T10:55:40.404Z,6580
2018-04-08T10:55:53.008Z,6924
2018-04-08T10:56:05.606Z,7396
2018-04-08T10:56:18.223Z,7932
2018-04-08T10:56:30.849Z,8444
2018-04-08T10:56:43.458Z,8784
2018-04-08T10:56:56.056Z,8932
2018-04-08T10:57:08.646Z,9148
2018-04-08T10:57:21.290Z,9484
2018-04-08T10:57:33.896Z,9512
2018-04-08T10:57:46.514Z,9500
2018-04-08T10:57:59.103Z,9564
2018-04-08T10:58:11.756Z,9688
2018-04-08T10:58:24.322Z,9868
2018-04-08T10:58:36.973Z,10100
2018-04-08T10:58:49.550Z,10320
2018-04-08T10:59:02.129Z,10572
2018-04-08T10:59:14.720Z,10416
2018-04-08T10:59:27.317Z,9828
2018-04-08T10:59:39.909Z,9168
2018-04-08T10:59:52.501Z,8904
2018-04-08T11:00:05.100Z,8816
2018-04-08T11:00:17.716Z,8872
2018-04-08T11:00:30.332Z,9004
2018-04-08T11:00:42.948Z,9136
2018-04-08T11:00:55.550Z,9220
2018-04-08T11:01:08.153Z,9384
2018-04-08T11:01:20.765Z,9616
2018-04-08T11:01:33.357Z,9684
2018-04-08T11:01:45.955Z,9776